sensor_id;sensor_type;location;lat;lon;timestamp;P1;durP1;ratioP1;P2;durP2;ratioP2
29370;SDS011;16357;52.188;7.838;2023-10-09T00:01:05;5.05;;;2.05;;
29370;SDS011;16357;52.188;7.838;2023-10-09T00:03:44;4.63;;;2.20;;
29370;SDS011;16357;52.188;7.838;2023-10-09T00:06:11;3.55;;;2.17;;
29370;SDS011;16357;52.188;7.838;2023-10-09T00:08:41;6.82;;;2.95;;
29370;SDS011;16357;52.188;7.838;2023-10-09T00:11:11;4.72;;;2.50;;
29370;SDS011;16357;52.188;7.838;2023-10-09T00:13:44;5.75;;;2.33;;
29370;SDS011;16357;52.188;7.838;2023-10-09T00:16:17;5.15;;;2.40;;
29370;SDS011;16357;52.188;7.838;2023-10-09T00:18:59;7.15;;;2.70;;
29370;SDS011;16357;52.188;7.838;2023-10-09T00:21:46;5.70;;;2.83;;
29370;SDS011;16357;52.188;7.838;2023-10-09T00:24:14;6.68;;;3.03;;
29370;SDS011;16357;52.188;7.838;2023-10-09T00:26:43;5.10;;;2.60;;
29370;SDS011;16357;52.188;7.838;2023-10-09T00:29:13;7.20;;;3.35;;
29370;SDS011;16357;52.188;7.838;2023-10-09T00:32:03;4.30;;;2.80;;
29370;SDS011;16357;52.188;7.838;2023-10-09T00:34:32;4.38;;;3.00;;
29370;SDS011;16357;52.188;7.838;2023-10-09T00:37:06;5.60;;;3.15;;
29370;SDS011;16357;52.188;7.838;2023-10-09T00:39:52;7.53;;;3.17;;
29370;SDS011;16357;52.188;7.838;2023-10-09T00:42:23;10.88;;;3.45;;
29370;SDS011;16357;52.188;7.838;2023-10-09T00:44:59;6.78;;;3.22;;
29370;SDS011;16357;52.188;7.838;2023-10-09T00:47:35;4.93;;;3.03;;
29370;SDS011;16357;52.188;7.838;2023-10-09T00:50:07;5.35;;;2.95;;
29370;SDS011;16357;52.188;7.838;2023-10-09T00:52:45;6.27;;;2.97;;
29370;SDS011;16357;52.188;7.838;2023-10-09T00:55:17;5.80;;;3.25;;
29370;SDS011;16357;52.188;7.838;2023-10-09T00:58:02;8.93;;;4.00;;
29370;SDS011;16357;52.188;7.838;2023-10-09T01:00:34;5.78;;;3.53;;
29370;SDS011;16357;52.188;7.838;2023-10-09T01:03:15;5.35;;;3.20;;
29370;SDS011;16357;52.188;7.838;2023-10-09T01:05:49;4.82;;;3.45;;
29370;SDS011;16357;52.188;7.838;2023-10-09T01:08:18;8.05;;;3.45;;
29370;SDS011;16357;52.188;7.838;2023-10-09T01:10:51;6.50;;;3.60;;
29370;SDS011;16357;52.188;7.838;2023-10-09T01:13:23;7.55;;;3.92;;
29370;SDS011;16357;52.188;7.838;2023-10-09T01:16:05;9.48;;;3.88;;
29370;SDS011;16357;52.188;7.838;2023-10-09T01:18:33;6.70;;;3.30;;
29370;SDS011;16357;52.188;7.838;2023-10-09T01:21:04;6.60;;;3.40;;
29370;SDS011;16357;52.188;7.838;2023-10-09T01:23:31;5.75;;;3.55;;
29370;SDS011;16357;52.188;7.838;2023-10-09T01:25:57;5.75;;;3.72;;
29370;SDS011;16357;52.188;7.838;2023-10-09T01:28:24;10.13;;;4.57;;
29370;SDS011;16357;52.188;7.838;2023-10-09T01:30:52;9.55;;;4.30;;
29370;SDS011;16357;52.188;7.838;2023-10-09T01:33:18;7.50;;;4.32;;
29370;SDS011;16357;52.188;7.838;2023-10-09T01:35:49;6.93;;;4.07;;
29370;SDS011;16357;52.188;7.838;2023-10-09T01:38:17;7.97;;;4.28;;
29370;SDS011;16357;52.188;7.838;2023-10-09T01:40:43;9.48;;;4.40;;
29370;SDS011;16357;52.188;7.838;2023-10-09T01:43:11;7.25;;;4.65;;
29370;SDS011;16357;52.188;7.838;2023-10-09T01:45:38;10.55;;;5.32;;
29370;SDS011;16357;52.188;7.838;2023-10-09T01:48:13;7.75;;;4.68;;
29370;SDS011;16357;52.188;7.838;2023-10-09T01:50:50;7.95;;;4.57;;
29370;SDS011;16357;52.188;7.838;2023-10-09T01:53:16;9.50;;;5.22;;
29370;SDS011;16357;52.188;7.838;2023-10-09T01:55:48;9.00;;;4.90;;
29370;SDS011;16357;52.188;7.838;2023-10-09T01:58:16;8.23;;;4.88;;
29370;SDS011;16357;52.188;7.838;2023-10-09T02:00:48;8.15;;;4.88;;
29370;SDS011;16357;52.188;7.838;2023-10-09T02:03:22;8.20;;;5.22;;
29370;SDS011;16357;52.188;7.838;2023-10-09T02:05:53;9.85;;;4.63;;
29370;SDS011;16357;52.188;7.838;2023-10-09T02:08:25;8.20;;;5.25;;
29370;SDS011;16357;52.188;7.838;2023-10-09T02:10:56;9.32;;;4.90;;
29370;SDS011;16357;52.188;7.838;2023-10-09T02:13:22;7.53;;;5.28;;
29370;SDS011;16357;52.188;7.838;2023-10-09T02:15:55;7.50;;;4.70;;
29370;SDS011;16357;52.188;7.838;2023-10-09T02:18:39;10.50;;;5.45;;
29370;SDS011;16357;52.188;7.838;2023-10-09T02:21:06;10.82;;;5.30;;
29370;SDS011;16357;52.188;7.838;2023-10-09T02:23:34;11.38;;;5.82;;
29370;SDS011;16357;52.188;7.838;2023-10-09T02:26:11;9.25;;;5.13;;
29370;SDS011;16357;52.188;7.838;2023-10-09T02:28:53;11.30;;;5.38;;
29370;SDS011;16357;52.188;7.838;2023-10-09T02:31:30;9.68;;;4.68;;
29370;SDS011;16357;52.188;7.838;2023-10-09T02:34:07;9.73;;;5.32;;
29370;SDS011;16357;52.188;7.838;2023-10-09T02:36:37;9.23;;;5.20;;
29370;SDS011;16357;52.188;7.838;2023-10-09T02:39:10;10.10;;;6.07;;
29370;SDS011;16357;52.188;7.838;2023-10-09T02:41:57;11.65;;;5.38;;
29370;SDS011;16357;52.188;7.838;2023-10-09T02:44:45;8.40;;;5.47;;
29370;SDS011;16357;52.188;7.838;2023-10-09T02:47:18;11.40;;;5.30;;
29370;SDS011;16357;52.188;7.838;2023-10-09T02:49:56;9.52;;;5.40;;
29370;SDS011;16357;52.188;7.838;2023-10-09T02:52:33;9.23;;;5.72;;
29370;SDS011;16357;52.188;7.838;2023-10-09T02:55:06;9.75;;;5.40;;
29370;SDS011;16357;52.188;7.838;2023-10-09T02:57:38;10.60;;;5.60;;
29370;SDS011;16357;52.188;7.838;2023-10-09T03:00:07;8.73;;;5.05;;
29370;SDS011;16357;52.188;7.838;2023-10-09T03:02:56;9.23;;;5.72;;
29370;SDS011;16357;52.188;7.838;2023-10-09T03:05:24;12.38;;;5.60;;
29370;SDS011;16357;52.188;7.838;2023-10-09T03:07:54;12.07;;;5.93;;
29370;SDS011;16357;52.188;7.838;2023-10-09T03:10:22;9.45;;;5.30;;
29370;SDS011;16357;52.188;7.838;2023-10-09T03:12:49;9.63;;;5.65;;
29370;SDS011;16357;52.188;7.838;2023-10-09T03:15:19;8.07;;;5.05;;
29370;SDS011;16357;52.188;7.838;2023-10-09T03:17:46;11.65;;;6.00;;
29370;SDS011;16357;52.188;7.838;2023-10-09T03:20:16;13.90;;;6.00;;
29370;SDS011;16357;52.188;7.838;2023-10-09T03:22:44;11.32;;;6.07;;
29370;SDS011;16357;52.188;7.838;2023-10-09T03:25:11;12.13;;;6.45;;
29370;SDS011;16357;52.188;7.838;2023-10-09T03:27:40;10.20;;;6.30;;
29370;SDS011;16357;52.188;7.838;2023-10-09T03:30:13;11.73;;;6.03;;
29370;SDS011;16357;52.188;7.838;2023-10-09T03:32:49;9.70;;;6.03;;
29370;SDS011;16357;52.188;7.838;2023-10-09T03:35:18;12.25;;;6.13;;
29370;SDS011;16357;52.188;7.838;2023-10-09T03:37:54;9.90;;;6.00;;
29370;SDS011;16357;52.188;7.838;2023-10-09T03:40:41;9.05;;;5.75;;
29370;SDS011;16357;52.188;7.838;2023-10-09T03:43:12;12.63;;;6.68;;
29370;SDS011;16357;52.188;7.838;2023-10-09T03:45:39;12.18;;;6.20;;
29370;SDS011;16357;52.188;7.838;2023-10-09T03:48:18;13.15;;;6.45;;
29370;SDS011;16357;52.188;7.838;2023-10-09T03:50:52;10.05;;;6.65;;
29370;SDS011;16357;52.188;7.838;2023-10-09T03:53:35;11.43;;;6.65;;
29370;SDS011;16357;52.188;7.838;2023-10-09T03:56:09;12.68;;;6.70;;
29370;SDS011;16357;52.188;7.838;2023-10-09T03:58:45;12.30;;;7.40;;
29370;SDS011;16357;52.188;7.838;2023-10-09T04:01:13;12.55;;;6.82;;
29370;SDS011;16357;52.188;7.838;2023-10-09T04:03:56;12.30;;;6.90;;
29370;SDS011;16357;52.188;7.838;2023-10-09T04:06:30;13.40;;;6.75;;
29370;SDS011;16357;52.188;7.838;2023-10-09T04:09:02;15.00;;;6.90;;
29370;SDS011;16357;52.188;7.838;2023-10-09T04:11:42;13.23;;;6.57;;
29370;SDS011;16357;52.188;7.838;2023-10-09T04:14:10;12.70;;;7.53;;
29370;SDS011;16357;52.188;7.838;2023-10-09T04:16:38;12.73;;;6.95;;
29370;SDS011;16357;52.188;7.838;2023-10-09T04:19:18;11.52;;;7.25;;
29370;SDS011;16357;52.188;7.838;2023-10-09T04:21:48;11.32;;;6.93;;
29370;SDS011;16357;52.188;7.838;2023-10-09T04:24:14;13.23;;;7.40;;
29370;SDS011;16357;52.188;7.838;2023-10-09T04:26:42;11.80;;;7.25;;
29370;SDS011;16357;52.188;7.838;2023-10-09T04:29:13;13.10;;;7.28;;
29370;SDS011;16357;52.188;7.838;2023-10-09T04:31:54;13.38;;;7.70;;
29370;SDS011;16357;52.188;7.838;2023-10-09T04:34:26;15.13;;;8.18;;
29370;SDS011;16357;52.188;7.838;2023-10-09T04:37:15;14.38;;;7.80;;
29370;SDS011;16357;52.188;7.838;2023-10-09T04:39:41;14.23;;;8.38;;
29370;SDS011;16357;52.188;7.838;2023-10-09T04:42:15;14.77;;;8.43;;
29370;SDS011;16357;52.188;7.838;2023-10-09T04:45:02;14.68;;;8.48;;
29370;SDS011;16357;52.188;7.838;2023-10-09T04:47:33;16.73;;;9.48;;
29370;SDS011;16357;52.188;7.838;2023-10-09T04:50:04;14.55;;;8.85;;
29370;SDS011;16357;52.188;7.838;2023-10-09T04:52:35;13.95;;;8.90;;
29370;SDS011;16357;52.188;7.838;2023-10-09T04:55:02;17.13;;;9.32;;
29370;SDS011;16357;52.188;7.838;2023-10-09T04:57:48;14.45;;;8.38;;
29370;SDS011;16357;52.188;7.838;2023-10-09T05:00:28;15.82;;;8.80;;
29370;SDS011;16357;52.188;7.838;2023-10-09T05:02:56;14.20;;;8.98;;
29370;SDS011;16357;52.188;7.838;2023-10-09T05:05:28;17.48;;;10.23;;
29370;SDS011;16357;52.188;7.838;2023-10-09T05:08:12;15.32;;;9.55;;
29370;SDS011;16357;52.188;7.838;2023-10-09T05:13:39;13.25;;;8.25;;
29370;SDS011;16357;52.188;7.838;2023-10-09T05:16:07;14.63;;;9.25;;
29370;SDS011;16357;52.188;7.838;2023-10-09T05:18:59;17.17;;;9.18;;
29370;SDS011;16357;52.188;7.838;2023-10-09T05:21:26;17.17;;;10.50;;
29370;SDS011;16357;52.188;7.838;2023-10-09T05:23:59;17.88;;;10.32;;
29370;SDS011;16357;52.188;7.838;2023-10-09T05:26:40;15.50;;;9.13;;
29370;SDS011;16357;52.188;7.838;2023-10-09T05:32:02;17.80;;;9.87;;
29370;SDS011;16357;52.188;7.838;2023-10-09T05:34:31;19.88;;;10.63;;
29370;SDS011;16357;52.188;7.838;2023-10-09T05:37:06;14.90;;;8.77;;
29370;SDS011;16357;52.188;7.838;2023-10-09T05:39:52;16.15;;;9.60;;
29370;SDS011;16357;52.188;7.838;2023-10-09T05:42:34;16.90;;;9.32;;
29370;SDS011;16357;52.188;7.838;2023-10-09T05:45:12;18.48;;;9.40;;
29370;SDS011;16357;52.188;7.838;2023-10-09T05:47:51;17.77;;;10.15;;
29370;SDS011;16357;52.188;7.838;2023-10-09T05:50:20;13.77;;;9.50;;
29370;SDS011;16357;52.188;7.838;2023-10-09T05:53:00;15.60;;;9.82;;
29370;SDS011;16357;52.188;7.838;2023-10-09T05:55:28;13.35;;;8.02;;
29370;SDS011;16357;52.188;7.838;2023-10-09T05:58:14;14.27;;;8.50;;
29370;SDS011;16357;52.188;7.838;2023-10-09T06:01:00;15.57;;;9.77;;
29370;SDS011;16357;52.188;7.838;2023-10-09T06:03:45;14.80;;;9.88;;
29370;SDS011;16357;52.188;7.838;2023-10-09T06:06:21;15.82;;;9.90;;
29370;SDS011;16357;52.188;7.838;2023-10-09T06:09:01;13.57;;;9.07;;
29370;SDS011;16357;52.188;7.838;2023-10-09T06:14:21;17.92;;;9.95;;
29370;SDS011;16357;52.188;7.838;2023-10-09T06:17:11;16.17;;;9.48;;
29370;SDS011;16357;52.188;7.838;2023-10-09T06:19:40;15.35;;;9.60;;
29370;SDS011;16357;52.188;7.838;2023-10-09T06:22:09;18.90;;;10.13;;
29370;SDS011;16357;52.188;7.838;2023-10-09T06:24:55;17.02;;;10.32;;
29370;SDS011;16357;52.188;7.838;2023-10-09T06:27:23;17.35;;;10.43;;
29370;SDS011;16357;52.188;7.838;2023-10-09T06:29:57;19.55;;;10.30;;
29370;SDS011;16357;52.188;7.838;2023-10-09T06:32:43;21.15;;;11.65;;
29370;SDS011;16357;52.188;7.838;2023-10-09T06:35:34;17.70;;;10.68;;
29370;SDS011;16357;52.188;7.838;2023-10-09T06:38:02;18.15;;;10.90;;
29370;SDS011;16357;52.188;7.838;2023-10-09T06:40:38;17.75;;;11.18;;
29370;SDS011;16357;52.188;7.838;2023-10-09T06:43:24;19.48;;;11.35;;
29370;SDS011;16357;52.188;7.838;2023-10-09T06:45:51;21.10;;;12.27;;
29370;SDS011;16357;52.188;7.838;2023-10-09T06:48:24;17.70;;;12.35;;
29370;SDS011;16357;52.188;7.838;2023-10-09T06:51:10;21.08;;;12.55;;
29370;SDS011;16357;52.188;7.838;2023-10-09T06:53:53;21.63;;;13.45;;
29370;SDS011;16357;52.188;7.838;2023-10-09T06:56:31;21.88;;;13.15;;
29370;SDS011;16357;52.188;7.838;2023-10-09T06:58:57;25.25;;;13.48;;
29370;SDS011;16357;52.188;7.838;2023-10-09T07:01:25;19.70;;;11.93;;
29370;SDS011;16357;52.188;7.838;2023-10-09T07:04:11;20.67;;;12.05;;
29370;SDS011;16357;52.188;7.838;2023-10-09T07:06:57;17.13;;;12.25;;
29370;SDS011;16357;52.188;7.838;2023-10-09T07:09:25;21.33;;;11.70;;
29370;SDS011;16357;52.188;7.838;2023-10-09T07:12:09;18.92;;;11.57;;
29370;SDS011;16357;52.188;7.838;2023-10-09T07:14:40;21.33;;;12.95;;
29370;SDS011;16357;52.188;7.838;2023-10-09T07:17:07;23.48;;;13.43;;
29370;SDS011;16357;52.188;7.838;2023-10-09T07:19:53;17.83;;;12.00;;
29370;SDS011;16357;52.188;7.838;2023-10-09T07:22:20;22.33;;;13.57;;
29370;SDS011;16357;52.188;7.838;2023-10-09T07:24:47;21.55;;;12.85;;
29370;SDS011;16357;52.188;7.838;2023-10-09T07:27:27;20.65;;;13.73;;
29370;SDS011;16357;52.188;7.838;2023-10-09T07:30:11;20.42;;;13.07;;
29370;SDS011;16357;52.188;7.838;2023-10-09T07:35:34;27.02;;;14.40;;
29370;SDS011;16357;52.188;7.838;2023-10-09T07:38:18;20.70;;;13.50;;
29370;SDS011;16357;52.188;7.838;2023-10-09T07:40:49;20.23;;;12.60;;
29370;SDS011;16357;52.188;7.838;2023-10-09T07:43:46;18.88;;;12.85;;
29370;SDS011;16357;52.188;7.838;2023-10-09T07:46:17;22.67;;;13.80;;
29370;SDS011;16357;52.188;7.838;2023-10-09T07:48:57;22.42;;;13.82;;
29370;SDS011;16357;52.188;7.838;2023-10-09T07:51:26;21.65;;;13.80;;
29370;SDS011;16357;52.188;7.838;2023-10-09T07:53:59;23.40;;;14.48;;
29370;SDS011;16357;52.188;7.838;2023-10-09T07:56:36;25.90;;;15.55;;
29370;SDS011;16357;52.188;7.838;2023-10-09T07:59:08;23.70;;;15.27;;
29370;SDS011;16357;52.188;7.838;2023-10-09T08:04:21;23.13;;;14.88;;
29370;SDS011;16357;52.188;7.838;2023-10-09T08:07:05;22.88;;;15.63;;
29370;SDS011;16357;52.188;7.838;2023-10-09T08:09:55;29.23;;;13.73;;
29370;SDS011;16357;52.188;7.838;2023-10-09T08:12:40;19.58;;;14.15;;
29370;SDS011;16357;52.188;7.838;2023-10-09T08:15:11;23.45;;;13.68;;
29370;SDS011;16357;52.188;7.838;2023-10-09T08:17:56;21.98;;;13.95;;
29370;SDS011;16357;52.188;7.838;2023-10-09T08:20:45;23.02;;;14.73;;
29370;SDS011;16357;52.188;7.838;2023-10-09T08:23:37;22.63;;;14.52;;
29370;SDS011;16357;52.188;7.838;2023-10-09T08:26:16;22.05;;;14.20;;
29370;SDS011;16357;52.188;7.838;2023-10-09T08:28:55;21.33;;;13.70;;
29370;SDS011;16357;52.188;7.838;2023-10-09T08:31:43;22.83;;;14.38;;
29370;SDS011;16357;52.188;7.838;2023-10-09T08:34:13;22.05;;;14.75;;
29370;SDS011;16357;52.188;7.838;2023-10-09T08:36:55;23.35;;;15.00;;
29370;SDS011;16357;52.188;7.838;2023-10-09T08:39:22;22.25;;;14.20;;
29370;SDS011;16357;52.188;7.838;2023-10-09T08:41:53;26.33;;;15.23;;
29370;SDS011;16357;52.188;7.838;2023-10-09T08:44:24;21.27;;;14.82;;
29370;SDS011;16357;52.188;7.838;2023-10-09T08:46:56;22.15;;;14.82;;
29370;SDS011;16357;52.188;7.838;2023-10-09T08:49:24;22.83;;;14.55;;
29370;SDS011;16357;52.188;7.838;2023-10-09T08:51:52;24.33;;;15.05;;
29370;SDS011;16357;52.188;7.838;2023-10-09T08:54:19;23.67;;;15.60;;
29370;SDS011;16357;52.188;7.838;2023-10-09T08:56:45;22.95;;;15.32;;
29370;SDS011;16357;52.188;7.838;2023-10-09T08:59:18;24.77;;;16.92;;
29370;SDS011;16357;52.188;7.838;2023-10-09T09:01:46;22.10;;;15.90;;
29370;SDS011;16357;52.188;7.838;2023-10-09T09:07:06;23.58;;;16.10;;
29370;SDS011;16357;52.188;7.838;2023-10-09T09:09:54;23.88;;;15.82;;
29370;SDS011;16357;52.188;7.838;2023-10-09T09:12:29;25.63;;;16.38;;
29370;SDS011;16357;52.188;7.838;2023-10-09T09:15:04;25.00;;;15.27;;
29370;SDS011;16357;52.188;7.838;2023-10-09T09:17:45;25.15;;;14.85;;
29370;SDS011;16357;52.188;7.838;2023-10-09T09:20:22;22.98;;;15.52;;
29370;SDS011;16357;52.188;7.838;2023-10-09T09:23:00;22.30;;;15.77;;
29370;SDS011;16357;52.188;7.838;2023-10-09T09:25:39;22.73;;;15.02;;
29370;SDS011;16357;52.188;7.838;2023-10-09T09:28:14;24.20;;;15.75;;
29370;SDS011;16357;52.188;7.838;2023-10-09T09:31:08;21.67;;;14.98;;
29370;SDS011;16357;52.188;7.838;2023-10-09T09:33:41;25.50;;;15.30;;
29370;SDS011;16357;52.188;7.838;2023-10-09T09:36:21;22.67;;;15.57;;
29370;SDS011;16357;52.188;7.838;2023-10-09T09:38:49;21.77;;;14.10;;
29370;SDS011;16357;52.188;7.838;2023-10-09T09:41:17;22.42;;;15.10;;
29370;SDS011;16357;52.188;7.838;2023-10-09T09:46:31;21.13;;;13.07;;
29370;SDS011;16357;52.188;7.838;2023-10-09T09:49:01;21.17;;;14.35;;
29370;SDS011;16357;52.188;7.838;2023-10-09T09:51:31;22.02;;;15.40;;
29370;SDS011;16357;52.188;7.838;2023-10-09T09:53:58;20.73;;;14.15;;
29370;SDS011;16357;52.188;7.838;2023-10-09T09:56:25;22.85;;;13.93;;
29370;SDS011;16357;52.188;7.838;2023-10-09T09:58:52;19.55;;;13.80;;
29370;SDS011;16357;52.188;7.838;2023-10-09T10:01:28;20.55;;;14.38;;
29370;SDS011;16357;52.188;7.838;2023-10-09T10:03:59;23.58;;;15.00;;
29370;SDS011;16357;52.188;7.838;2023-10-09T10:06:30;22.00;;;14.65;;
29370;SDS011;16357;52.188;7.838;2023-10-09T10:08:58;19.65;;;14.23;;
29370;SDS011;16357;52.188;7.838;2023-10-09T10:11:41;19.50;;;14.45;;
29370;SDS011;16357;52.188;7.838;2023-10-09T10:14:12;20.95;;;14.00;;
29370;SDS011;16357;52.188;7.838;2023-10-09T10:17:01;26.95;;;14.77;;
29370;SDS011;16357;52.188;7.838;2023-10-09T10:22:27;20.70;;;14.35;;
29370;SDS011;16357;52.188;7.838;2023-10-09T10:24:54;25.50;;;14.50;;
29370;SDS011;16357;52.188;7.838;2023-10-09T10:27:21;23.48;;;14.50;;
29370;SDS011;16357;52.188;7.838;2023-10-09T10:32:53;22.35;;;14.13;;
29370;SDS011;16357;52.188;7.838;2023-10-09T10:35:24;19.73;;;13.85;;
29370;SDS011;16357;52.188;7.838;2023-10-09T10:38:29;20.23;;;13.48;;
29370;SDS011;16357;52.188;7.838;2023-10-09T10:41:17;19.58;;;13.82;;
29370;SDS011;16357;52.188;7.838;2023-10-09T10:43:46;22.95;;;14.55;;
29370;SDS011;16357;52.188;7.838;2023-10-09T10:46:19;21.52;;;14.18;;
29370;SDS011;16357;52.188;7.838;2023-10-09T10:48:59;21.35;;;14.35;;
29370;SDS011;16357;52.188;7.838;2023-10-09T10:51:37;20.17;;;13.18;;
29370;SDS011;16357;52.188;7.838;2023-10-09T10:54:05;20.15;;;13.90;;
29370;SDS011;16357;52.188;7.838;2023-10-09T10:57:21;22.50;;;13.50;;
29370;SDS011;16357;52.188;7.838;2023-10-09T11:00:10;21.52;;;14.05;;
29370;SDS011;16357;52.188;7.838;2023-10-09T11:02:56;22.02;;;14.48;;
29370;SDS011;16357;52.188;7.838;2023-10-09T11:05:42;23.70;;;13.88;;
29370;SDS011;16357;52.188;7.838;2023-10-09T11:08:17;20.60;;;13.73;;
29370;SDS011;16357;52.188;7.838;2023-10-09T11:10:49;21.13;;;14.35;;
29370;SDS011;16357;52.188;7.838;2023-10-09T11:13:26;22.00;;;14.73;;
29370;SDS011;16357;52.188;7.838;2023-10-09T11:16:16;26.05;;;14.23;;
29370;SDS011;16357;52.188;7.838;2023-10-09T11:18:55;21.15;;;14.35;;
29370;SDS011;16357;52.188;7.838;2023-10-09T11:21:23;23.98;;;15.10;;
29370;SDS011;16357;52.188;7.838;2023-10-09T11:23:57;19.52;;;13.27;;
29370;SDS011;16357;52.188;7.838;2023-10-09T11:26:25;22.33;;;14.43;;
29370;SDS011;16357;52.188;7.838;2023-10-09T11:31:41;20.92;;;13.73;;
29370;SDS011;16357;52.188;7.838;2023-10-09T11:34:47;21.75;;;13.82;;
29370;SDS011;16357;52.188;7.838;2023-10-09T11:37:23;29.15;;;15.48;;
29370;SDS011;16357;52.188;7.838;2023-10-09T11:39:56;23.63;;;14.77;;
29370;SDS011;16357;52.188;7.838;2023-10-09T11:42:24;20.92;;;13.43;;
29370;SDS011;16357;52.188;7.838;2023-10-09T11:45:03;20.58;;;13.80;;
29370;SDS011;16357;52.188;7.838;2023-10-09T11:47:46;28.65;;;13.05;;
29370;SDS011;16357;52.188;7.838;2023-10-09T11:50:38;21.00;;;13.43;;
29370;SDS011;16357;52.188;7.838;2023-10-09T11:53:10;23.50;;;14.68;;
29370;SDS011;16357;52.188;7.838;2023-10-09T11:55:59;19.83;;;13.88;;
29370;SDS011;16357;52.188;7.838;2023-10-09T11:58:26;17.38;;;13.38;;
29370;SDS011;16357;52.188;7.838;2023-10-09T12:00:53;18.85;;;14.10;;
29370;SDS011;16357;52.188;7.838;2023-10-09T12:03:26;22.25;;;14.10;;
29370;SDS011;16357;52.188;7.838;2023-10-09T12:05:59;19.55;;;13.23;;
29370;SDS011;16357;52.188;7.838;2023-10-09T12:08:40;18.90;;;13.70;;
29370;SDS011;16357;52.188;7.838;2023-10-09T12:11:07;21.15;;;13.38;;
29370;SDS011;16357;52.188;7.838;2023-10-09T12:13:38;19.63;;;13.38;;
29370;SDS011;16357;52.188;7.838;2023-10-09T12:16:05;19.25;;;13.07;;
29370;SDS011;16357;52.188;7.838;2023-10-09T12:18:37;21.35;;;13.43;;
29370;SDS011;16357;52.188;7.838;2023-10-09T12:21:06;20.17;;;13.05;;
29370;SDS011;16357;52.188;7.838;2023-10-09T12:23:33;25.00;;;13.98;;
29370;SDS011;16357;52.188;7.838;2023-10-09T12:26:03;21.00;;;12.60;;
29370;SDS011;16357;52.188;7.838;2023-10-09T12:28:31;18.80;;;11.88;;
29370;SDS011;16357;52.188;7.838;2023-10-09T12:31:00;20.45;;;12.02;;
29370;SDS011;16357;52.188;7.838;2023-10-09T12:33:28;20.02;;;12.73;;
29370;SDS011;16357;52.188;7.838;2023-10-09T12:35:56;19.13;;;12.63;;
29370;SDS011;16357;52.188;7.838;2023-10-09T12:38:27;20.13;;;12.13;;
29370;SDS011;16357;52.188;7.838;2023-10-09T12:41:04;19.63;;;11.30;;
29370;SDS011;16357;52.188;7.838;2023-10-09T12:43:48;21.23;;;11.85;;
29370;SDS011;16357;52.188;7.838;2023-10-09T12:46:15;20.60;;;11.63;;
29370;SDS011;16357;52.188;7.838;2023-10-09T12:48:44;17.70;;;11.32;;
29370;SDS011;16357;52.188;7.838;2023-10-09T12:51:13;18.48;;;11.80;;
29370;SDS011;16357;52.188;7.838;2023-10-09T12:53:43;22.55;;;11.15;;
29370;SDS011;16357;52.188;7.838;2023-10-09T12:56:15;19.17;;;10.98;;
29370;SDS011;16357;52.188;7.838;2023-10-09T12:58:44;14.90;;;10.43;;
29370;SDS011;16357;52.188;7.838;2023-10-09T13:01:19;17.33;;;9.77;;
29370;SDS011;16357;52.188;7.838;2023-10-09T13:03:46;17.92;;;10.50;;
29370;SDS011;16357;52.188;7.838;2023-10-09T13:06:15;16.08;;;10.10;;
29370;SDS011;16357;52.188;7.838;2023-10-09T13:08:50;16.30;;;10.57;;
29370;SDS011;16357;52.188;7.838;2023-10-09T13:11:18;16.63;;;10.27;;
29370;SDS011;16357;52.188;7.838;2023-10-09T13:13:45;14.55;;;9.40;;
29370;SDS011;16357;52.188;7.838;2023-10-09T13:16:20;16.42;;;9.40;;
29370;SDS011;16357;52.188;7.838;2023-10-09T13:18:55;17.58;;;10.15;;
29370;SDS011;16357;52.188;7.838;2023-10-09T13:21:23;14.98;;;8.95;;
29370;SDS011;16357;52.188;7.838;2023-10-09T13:23:52;15.00;;;8.88;;
29370;SDS011;16357;52.188;7.838;2023-10-09T13:26:21;14.93;;;8.82;;
29370;SDS011;16357;52.188;7.838;2023-10-09T13:29:00;15.07;;;8.35;;
29370;SDS011;16357;52.188;7.838;2023-10-09T13:31:28;14.88;;;8.40;;
29370;SDS011;16357;52.188;7.838;2023-10-09T13:33:58;13.57;;;8.23;;
29370;SDS011;16357;52.188;7.838;2023-10-09T13:36:26;14.02;;;7.57;;
29370;SDS011;16357;52.188;7.838;2023-10-09T13:39:06;15.32;;;7.72;;
29370;SDS011;16357;52.188;7.838;2023-10-09T13:41:54;14.57;;;6.82;;
29370;SDS011;16357;52.188;7.838;2023-10-09T13:44:29;13.48;;;7.18;;
29370;SDS011;16357;52.188;7.838;2023-10-09T13:46:56;14.60;;;6.57;;
29370;SDS011;16357;52.188;7.838;2023-10-09T13:49:25;11.98;;;7.25;;
29370;SDS011;16357;52.188;7.838;2023-10-09T13:54:28;10.63;;;6.07;;
29370;SDS011;16357;52.188;7.838;2023-10-09T13:56:58;12.93;;;6.80;;
29370;SDS011;16357;52.188;7.838;2023-10-09T13:59:25;12.98;;;6.78;;
29370;SDS011;16357;52.188;7.838;2023-10-09T14:01:53;15.40;;;6.60;;
29370;SDS011;16357;52.188;7.838;2023-10-09T14:04:24;14.93;;;6.82;;
29370;SDS011;16357;52.188;7.838;2023-10-09T14:06:52;13.20;;;5.97;;
29370;SDS011;16357;52.188;7.838;2023-10-09T14:09:24;8.48;;;5.32;;
29370;SDS011;16357;52.188;7.838;2023-10-09T14:12:19;12.55;;;5.35;;
29370;SDS011;16357;52.188;7.838;2023-10-09T14:14:48;12.75;;;5.32;;
29370;SDS011;16357;52.188;7.838;2023-10-09T14:17:18;12.48;;;6.00;;
29370;SDS011;16357;52.188;7.838;2023-10-09T14:19:55;13.43;;;6.00;;
29370;SDS011;16357;52.188;7.838;2023-10-09T14:22:43;12.25;;;5.55;;
29370;SDS011;16357;52.188;7.838;2023-10-09T14:25:11;10.73;;;5.95;;
29370;SDS011;16357;52.188;7.838;2023-10-09T14:27:41;14.43;;;6.20;;
29370;SDS011;16357;52.188;7.838;2023-10-09T14:30:08;12.15;;;6.03;;
29370;SDS011;16357;52.188;7.838;2023-10-09T14:32:45;12.25;;;6.15;;
29370;SDS011;16357;52.188;7.838;2023-10-09T14:35:17;10.60;;;6.25;;
29370;SDS011;16357;52.188;7.838;2023-10-09T14:37:47;12.25;;;6.43;;
29370;SDS011;16357;52.188;7.838;2023-10-09T14:40:14;12.70;;;6.43;;
29370;SDS011;16357;52.188;7.838;2023-10-09T14:42:46;15.70;;;6.75;;
29370;SDS011;16357;52.188;7.838;2023-10-09T14:45:13;13.43;;;5.93;;
29370;SDS011;16357;52.188;7.838;2023-10-09T14:47:43;19.92;;;6.78;;
29370;SDS011;16357;52.188;7.838;2023-10-09T14:50:09;13.73;;;6.18;;
29370;SDS011;16357;52.188;7.838;2023-10-09T14:52:36;14.20;;;6.07;;
29370;SDS011;16357;52.188;7.838;2023-10-09T14:55:05;14.10;;;6.10;;
29370;SDS011;16357;52.188;7.838;2023-10-09T14:57:32;11.20;;;6.63;;
29370;SDS011;16357;52.188;7.838;2023-10-09T15:00:00;13.10;;;5.88;;
29370;SDS011;16357;52.188;7.838;2023-10-09T15:02:30;11.00;;;5.97;;
29370;SDS011;16357;52.188;7.838;2023-10-09T15:04:58;12.25;;;5.78;;
29370;SDS011;16357;52.188;7.838;2023-10-09T15:07:24;13.15;;;6.68;;
29370;SDS011;16357;52.188;7.838;2023-10-09T15:10:05;12.55;;;6.60;;
29370;SDS011;16357;52.188;7.838;2023-10-09T15:12:35;15.00;;;5.97;;
29370;SDS011;16357;52.188;7.838;2023-10-09T15:15:06;10.10;;;5.55;;
29370;SDS011;16357;52.188;7.838;2023-10-09T15:17:43;11.82;;;5.85;;
29370;SDS011;16357;52.188;7.838;2023-10-09T15:20:14;13.27;;;6.57;;
29370;SDS011;16357;52.188;7.838;2023-10-09T15:22:41;14.23;;;6.82;;
29370;SDS011;16357;52.188;7.838;2023-10-09T15:25:08;15.60;;;6.57;;
29370;SDS011;16357;52.188;7.838;2023-10-09T15:27:35;14.18;;;6.38;;
29370;SDS011;16357;52.188;7.838;2023-10-09T15:30:05;15.55;;;6.72;;
29370;SDS011;16357;52.188;7.838;2023-10-09T15:32:34;14.70;;;6.07;;
29370;SDS011;16357;52.188;7.838;2023-10-09T15:35:01;14.05;;;6.28;;
29370;SDS011;16357;52.188;7.838;2023-10-09T15:37:28;12.10;;;5.93;;
29370;SDS011;16357;52.188;7.838;2023-10-09T15:39:55;12.63;;;6.63;;
29370;SDS011;16357;52.188;7.838;2023-10-09T15:42:21;11.02;;;6.03;;